Time;durP1;ratioP1;P1;durP2;ratioP2;P2;SDS_P1;SDS_P2;PMS_P1;PMS_P2;Temp;Humidity;BMP_temperature;BMP_pressure;BME280_temperature;BME280_humidity;BME280_pressure;Samples;Min_cycle;Max_cycle;Signal;HPM_P1;HPM_P2
2023/09/22 00:02:11;;;;;;;1409.00;997.95;;;13.90;99.90;;;;;;4876119;29;20055;-84
2023/09/22 00:04:37;;;;;;;1330.55;982.75;;;13.90;99.90;;;;;;4878432;29;20060;-84
2023/09/22 00:07:03;;;;;;;1320.68;969.83;;;13.90;99.90;;;;;;4877713;29;20044;-84
2023/09/22 00:09:28;;;;;;;1278.28;971.65;;;13.90;99.90;;;;;;4887453;29;20052;-84
2023/09/22 00:11:56;;;;;;;1288.78;969.80;;;13.90;99.90;;;;;;4894380;29;20044;-85
2023/09/22 00:14:22;;;;;;;1284.80;960.30;;;14.00;99.90;;;;;;4871804;29;20048;-84
2023/09/22 00:16:47;;;;;;;1316.57;965.08;;;13.90;99.90;;;;;;4894411;29;20429;-84
2023/09/22 00:19:14;;;;;;;1256.45;951.65;;;14.00;99.90;;;;;;4881448;29;20147;-85
2023/09/22 00:21:41;;;;;;;1209.00;941.97;;;14.00;99.90;;;;;;4896464;29;20096;-84
2023/09/22 00:24:07;;;;;;;1195.75;935.88;;;14.00;99.90;;;;;;4878679;29;20052;-84
2023/09/22 00:26:33;;;;;;;1249.78;947.25;;;14.00;99.90;;;;;;4895298;29;20107;-84
2023/09/22 00:28:59;;;;;;;1241.82;951.33;;;14.00;99.90;;;;;;4896814;29;20048;-85
2023/09/22 00:31:25;;;;;;;1264.25;973.13;;;14.00;99.90;;;;;;4881155;29;20051;-85
2023/09/22 00:33:52;;;;;;;1224.97;961.17;;;14.10;99.90;;;;;;4896946;29;20488;-84
2023/09/22 00:36:18;;;;;;;1244.63;955.28;;;14.00;99.90;;;;;;4895757;29;20123;-84
2023/09/22 00:38:44;;;;;;;1230.57;968.17;;;14.10;99.90;;;;;;4885751;29;20092;-84
2023/09/22 00:41:10;;;;;;;1212.00;949.80;;;14.00;99.90;;;;;;4875685;29;20076;-84
2023/09/22 00:43:35;;;;;;;1255.30;979.95;;;14.00;99.90;;;;;;4900612;29;20059;-84
2023/09/22 00:46:01;;;;;;;1279.82;964.83;;;14.10;99.90;;;;;;4875066;29;20045;-85
2023/09/22 00:48:28;;;;;;;1320.80;987.17;;;14.10;99.90;;;;;;4868813;29;20045;-84
2023/09/22 00:50:56;;;;;;;1293.25;994.95;;;14.10;99.90;;;;;;4875843;29;20047;-84
2023/09/22 00:53:27;;;;;;;1215.68;943.40;;;14.10;99.90;;;;;;4888753;29;20523;-84
2023/09/22 00:55:53;;;;;;;1169.78;934.50;;;14.10;99.90;;;;;;4879915;29;20051;-84
2023/09/22 00:58:19;;;;;;;1291.15;966.08;;;14.10;99.90;;;;;;4913625;29;20464;-84
2023/09/22 01:00:49;;;;;;;1411.43;999.90;;;14.10;99.90;;;;;;4879973;29;20044;-84
2023/09/22 01:03:16;;;;;;;1270.00;956.17;;;14.10;99.90;;;;;;4880231;29;20044;-84
2023/09/22 01:05:42;;;;;;;1316.93;975.70;;;14.10;99.90;;;;;;4876805;29;20449;-84
2023/09/22 01:08:08;;;;;;;1250.10;962.15;;;14.10;99.90;;;;;;4875359;29;20491;-84
2023/09/22 01:10:42;;;;;;;1436.68;999.90;;;14.10;99.90;;;;;;4895129;29;20536;-84
2023/09/22 01:13:09;;;;;;;1377.55;999.28;;;14.10;99.90;;;;;;4879081;29;20516;-84
2023/09/22 01:15:36;;;;;;;1282.60;987.42;;;14.10;99.90;;;;;;4883268;29;20575;-84
2023/09/22 01:18:05;;;;;;;1289.65;966.40;;;14.20;99.90;;;;;;4879836;29;20111;-84
2023/09/22 01:20:38;;;;;;;1264.50;972.95;;;14.10;99.90;;;;;;4880697;29;20056;-84
2023/09/22 01:23:04;;;;;;;1287.18;964.92;;;14.10;99.90;;;;;;4895422;29;20392;-83
2023/09/22 01:25:29;;;;;;;1235.38;959.85;;;14.10;99.90;;;;;;4896004;29;20044;-84
2023/09/22 01:27:55;;;;;;;1258.00;962.35;;;14.00;99.90;;;;;;4895960;29;20440;-84
2023/09/22 01:30:21;;;;;;;1297.43;971.60;;;14.00;99.90;;;;;;4895204;29;20059;-84
2023/09/22 01:32:46;;;;;;;1268.20;972.05;;;13.90;99.90;;;;;;4879666;29;20044;-84
2023/09/22 01:35:12;;;;;;;1349.60;985.88;;;13.90;99.90;;;;;;4896097;29;20052;-83
2023/09/22 01:37:50;;;;;;;1333.28;991.30;;;13.90;99.90;;;;;;4878381;29;20045;-83
2023/09/22 01:40:16;;;;;;;1384.00;999.65;;;13.90;99.90;;;;;;4896230;29;20048;-84
2023/09/22 01:42:43;;;;;;;1352.53;984.05;;;13.90;99.90;;;;;;4896045;29;20554;-84
2023/09/22 01:45:10;;;;;;;1289.53;967.40;;;13.90;99.90;;;;;;4894751;29;20593;-84
2023/09/22 01:47:36;;;;;;;1325.18;983.40;;;13.90;99.90;;;;;;4880382;29;20043;-84
2023/09/22 01:50:02;;;;;;;1282.85;977.03;;;13.90;99.90;;;;;;4880228;29;20048;-84
2023/09/22 01:52:28;;;;;;;1313.85;980.53;;;13.90;99.90;;;;;;4895441;29;20604;-84
2023/09/22 01:54:54;;;;;;;1252.00;964.28;;;13.80;99.90;;;;;;4871154;29;20101;-84
2023/09/22 01:57:20;;;;;;;1334.72;988.88;;;13.80;99.90;;;;;;4876680;29;20040;-84
2023/09/22 01:59:46;;;;;;;1377.47;988.75;;;13.80;99.90;;;;;;4894325;29;20075;-84
2023/09/22 02:02:13;;;;;;;1307.35;982.83;;;13.80;99.90;;;;;;4912663;29;20063;-84
2023/09/22 02:04:39;;;;;;;1294.28;977.03;;;13.70;99.90;;;;;;4879286;29;20043;-83
2023/09/22 02:07:05;;;;;;;1343.32;995.83;;;13.80;99.90;;;;;;4895564;29;20052;-84
2023/09/22 02:09:31;;;;;;;1348.47;979.28;;;13.80;99.90;;;;;;4870787;29;20075;-84
2023/09/22 02:11:57;;;;;;;1380.55;991.53;;;13.80;99.90;;;;;;4892194;29;20428;-83
2023/09/22 02:14:22;;;;;;;1399.55;999.83;;;13.80;99.90;;;;;;4894201;29;20040;-83
2023/09/22 02:16:49;;;;;;;1373.22;994.15;;;13.80;99.90;;;;;;4895336;29;20163;-83
2023/09/22 02:19:14;;;;;;;1299.93;976.05;;;13.80;99.90;;;;;;4879718;29;20420;-83
2023/09/22 02:21:40;;;;;;;1377.53;993.60;;;13.90;99.90;;;;;;4878013;29;20047;-83
2023/09/22 02:24:06;;;;;;;1383.35;991.35;;;13.90;99.90;;;;;;4895905;29;20040;-83
2023/09/22 02:26:32;;;;;;;1359.45;990.70;;;13.90;99.90;;;;;;4894766;29;20043;-84
2023/09/22 02:28:58;;;;;;;1403.63;997.00;;;13.80;99.90;;;;;;4894731;29;20146;-84
2023/09/22 02:31:26;;;;;;;1377.97;998.40;;;13.80;99.90;;;;;;4894554;29;20048;-83
2023/09/22 02:33:52;;;;;;;1371.40;994.88;;;13.80;99.90;;;;;;4893519;29;20559;-83
2023/09/22 02:36:18;;;;;;;1322.18;980.53;;;13.80;99.90;;;;;;4890532;29;20123;-84
2023/09/22 02:38:43;;;;;;;1329.65;982.85;;;13.70;99.90;;;;;;4870606;29;20108;-84
2023/09/22 02:41:12;;;;;;;1379.57;996.65;;;13.70;99.90;;;;;;4894027;29;20092;-84
2023/09/22 02:43:38;;;;;;;1361.43;995.85;;;13.70;99.90;;;;;;4884240;29;20056;-84
2023/09/22 02:46:04;;;;;;;1423.20;999.90;;;13.80;99.90;;;;;;4892201;29;20091;-84
2023/09/22 02:48:29;;;;;;;1434.43;999.90;;;13.80;99.90;;;;;;4894587;29;20051;-84
2023/09/22 02:50:55;;;;;;;1343.80;991.92;;;13.80;99.90;;;;;;4893598;29;20503;-84
2023/09/22 02:53:21;;;;;;;1355.65;982.92;;;13.80;99.90;;;;;;4879664;29;20044;-83
2023/09/22 02:55:46;;;;;;;1394.20;999.08;;;13.80;99.90;;;;;;4893088;29;20044;-83
2023/09/22 02:58:16;;;;;;;1412.93;999.90;;;13.90;99.90;;;;;;4894714;29;20524;-83
2023/09/22 03:00:44;;;;;;;1271.28;965.08;;;13.90;99.90;;;;;;4887178;29;20080;-84
2023/09/22 03:03:12;;;;;;;1346.80;990.85;;;13.90;99.90;;;;;;4872411;29;20054;-83
2023/09/22 03:05:39;;;;;;;1322.72;979.55;;;13.90;99.90;;;;;;4893840;29;20082;-84
2023/09/22 03:08:05;;;;;;;1386.72;995.30;;;14.00;99.90;;;;;;4878719;29;20036;-83
2023/09/22 03:10:33;;;;;;;1344.18;987.03;;;14.00;99.90;;;;;;4878082;29;20070;-83
2023/09/22 03:12:59;;;;;;;1437.25;999.90;;;14.00;99.90;;;;;;4894428;29;20040;-84
2023/09/22 03:15:25;;;;;;;1272.47;974.03;;;14.00;99.90;;;;;;4881240;29;20520;-84
2023/09/22 03:17:50;;;;;;;1432.85;999.90;;;14.00;99.90;;;;;;4892773;29;20059;-84
2023/09/22 03:20:17;;;;;;;1302.80;977.40;;;14.00;99.90;;;;;;4878685;29;20080;-84
2023/09/22 03:22:44;;;;;;;1328.13;988.05;;;14.00;99.90;;;;;;4894288;29;20417;-84
2023/09/22 03:25:11;;;;;;;1317.22;977.28;;;14.00;99.90;;;;;;4877235;29;20054;-83
2023/09/22 03:27:37;;;;;;;1409.70;999.90;;;13.90;99.90;;;;;;4894258;29;20052;-83
2023/09/22 03:30:07;;;;;;;1305.20;990.55;;;13.90;99.90;;;;;;4893313;29;20036;-84
2023/09/22 03:32:35;;;;;;;1301.68;986.10;;;13.90;99.90;;;;;;4894395;29;20115;-84
2023/09/22 03:35:08;;;;;;;1346.07;985.90;;;13.90;99.90;;;;;;4874821;29;20049;-84
2023/09/22 03:37:37;;;;;;;1340.00;984.88;;;13.80;99.90;;;;;;4888435;29;20044;-84
2023/09/22 03:40:13;;;;;;;1307.93;975.22;;;13.80;99.90;;;;;;4878410;29;20044;-84
2023/09/22 03:42:40;;;;;;;1238.50;969.63;;;13.80;99.90;;;;;;4893290;29;20059;-84
2023/09/22 03:45:07;;;;;;;1282.10;977.67;;;13.70;99.90;;;;;;4877261;29;20052;-84
2023/09/22 03:47:33;;;;;;;1352.07;997.85;;;13.70;99.90;;;;;;4878138;29;20092;-84
2023/09/22 03:49:58;;;;;;;1282.85;971.17;;;13.70;99.90;;;;;;4893507;29;20055;-84
2023/09/22 03:52:26;;;;;;;1293.72;982.60;;;13.70;99.90;;;;;;4892996;29;20139;-83
2023/09/22 03:54:52;;;;;;;1349.75;991.05;;;13.70;99.90;;;;;;4892917;29;20493;-84
2023/09/22 03:57:18;;;;;;;1269.30;970.67;;;13.70;99.90;;;;;;4893393;29;20056;-84
2023/09/22 03:59:44;;;;;;;1326.80;981.22;;;13.70;99.90;;;;;;4861093;29;20139;-84
2023/09/22 04:02:10;;;;;;;1293.90;976.28;;;13.70;99.90;;;;;;4889620;29;20082;-83
2023/09/22 04:04:35;;;;;;;1275.50;976.13;;;13.70;99.90;;;;;;4893440;29;20052;-83
2023/09/22 04:07:01;;;;;;;1315.32;979.00;;;13.70;99.90;;;;;;4865840;29;20075;-83
2023/09/22 04:09:28;;;;;;;1309.85;979.00;;;13.70;99.90;;;;;;4869840;29;20515;-83
2023/09/22 04:11:54;;;;;;;1215.75;956.47;;;13.70;99.90;;;;;;4866767;29;20058;-84
2023/09/22 04:14:21;;;;;;;1246.47;969.58;;;13.70;99.90;;;;;;4870064;29;20064;-84
2023/09/22 04:16:47;;;;;;;1248.70;965.97;;;13.60;99.90;;;;;;4877656;29;20044;-84
2023/09/22 04:19:13;;;;;;;1267.82;969.50;;;13.60;99.90;;;;;;4877214;29;20063;-84
2023/09/22 04:21:43;;;;;;;1248.10;968.38;;;13.60;99.90;;;;;;4885169;29;20080;-84
2023/09/22 04:24:11;;;;;;;1249.72;956.33;;;13.60;99.90;;;;;;4893467;29;20515;-83
2023/09/22 04:26:42;;;;;;;1280.07;975.58;;;13.60;99.90;;;;;;4873920;29;20052;-84
2023/09/22 04:29:11;;;;;;;1350.25;998.03;;;13.60;99.90;;;;;;4909838;29;20558;-83
2023/09/22 04:31:38;;;;;;;1272.80;975.88;;;13.60;99.90;;;;;;4887304;29;20055;-83
2023/09/22 04:34:03;;;;;;;1302.03;979.75;;;13.60;99.90;;;;;;4883801;29;20051;-84
2023/09/22 04:36:31;;;;;;;1368.65;998.90;;;13.70;99.90;;;;;;4891552;29;20053;-84
2023/09/22 04:38:57;;;;;;;1349.53;982.17;;;13.70;99.90;;;;;;4875391;29;20056;-84
2023/09/22 04:41:23;;;;;;;1267.10;968.92;;;13.60;99.90;;;;;;4891240;29;20119;-84
2023/09/22 04:43:48;;;;;;;1350.35;986.70;;;13.60;99.90;;;;;;4875797;29;20634;-83
2023/09/22 04:46:19;;;;;;;1262.15;974.92;;;13.70;99.90;;;;;;4874950;29;20048;-83
2023/09/22 04:48:46;;;;;;;1357.47;988.28;;;13.70;99.90;;;;;;4892525;29;20056;-84
2023/09/22 04:51:14;;;;;;;1335.43;988.05;;;13.70;99.90;;;;;;4893258;29;20080;-84
2023/09/22 04:53:41;;;;;;;1289.38;975.75;;;13.60;99.90;;;;;;4877505;29;20047;-84
2023/09/22 04:56:07;;;;;;;1295.28;978.83;;;13.60;99.90;;;;;;4874847;29;20040;-83
2023/09/22 04:58:34;;;;;;;1388.30;998.22;;;13.70;99.90;;;;;;4873972;29;20063;-83
2023/09/22 05:01:01;;;;;;;1290.47;971.80;;;13.70;99.90;;;;;;4895348;29;20512;-83
2023/09/22 05:03:30;;;;;;;1237.28;965.10;;;13.70;99.90;;;;;;4880674;29;20036;-83
2023/09/22 05:06:09;;;;;;;1287.05;972.78;;;13.70;99.90;;;;;;4895596;29;20052;-83
2023/09/22 05:08:36;;;;;;;1315.20;986.88;;;13.70;99.90;;;;;;4880260;29;20126;-83
2023/09/22 05:11:06;;;;;;;1204.50;965.22;;;13.70;99.90;;;;;;4880920;29;20040;-84
2023/09/22 05:13:33;;;;;;;1188.40;951.47;;;13.60;99.90;;;;;;4892932;29;20048;-84
2023/09/22 05:16:06;;;;;;;1251.90;971.22;;;13.60;99.90;;;;;;4870634;29;20048;-83
2023/09/22 05:18:32;;;;;;;1249.80;961.65;;;13.60;99.90;;;;;;4912479;29;20496;-83
2023/09/22 05:21:02;;;;;;;1136.68;931.35;;;13.60;99.90;;;;;;4902694;29;20064;-84
2023/09/22 05:23:29;;;;;;;1169.65;948.60;;;13.60;99.90;;;;;;4909734;29;20054;-83
2023/09/22 05:25:56;;;;;;;1059.05;908.33;;;13.50;99.90;;;;;;4911871;29;20441;-83
2023/09/22 05:28:21;;;;;;;1118.40;929.38;;;13.50;99.90;;;;;;4912174;29;20040;-84
2023/09/22 05:30:47;;;;;;;1112.80;920.55;;;13.40;99.90;;;;;;4910061;29;20055;-83
2023/09/22 05:33:13;;;;;;;1124.82;914.65;;;13.40;99.90;;;;;;4903181;29;20072;-83
2023/09/22 05:35:38;;;;;;;1053.65;898.90;;;13.40;99.90;;;;;;4909106;29;20047;-83
2023/09/22 05:38:05;;;;;;;1189.30;943.38;;;13.30;99.90;;;;;;4911096;29;20366;-83
2023/09/22 05:40:34;;;;;;;1158.05;934.03;;;13.30;99.90;;;;;;4892607;29;20059;-83
2023/09/22 05:43:02;;;;;;;1194.10;947.97;;;13.30;99.90;;;;;;4891675;29;20059;-83
2023/09/22 05:45:28;;;;;;;1233.88;960.38;;;13.30;99.90;;;;;;4903723;29;20044;-83
2023/09/22 05:47:54;;;;;;;1226.28;962.97;;;13.20;99.90;;;;;;4894986;29;20370;-83
2023/09/22 05:50:22;;;;;;;1145.15;935.60;;;13.30;99.90;;;;;;4911579;29;20177;-83
2023/09/22 05:52:47;;;;;;;1150.07;933.55;;;13.30;99.90;;;;;;4909811;29;20107;-83
2023/09/22 05:55:13;;;;;;;1218.95;958.90;;;13.30;99.90;;;;;;4892156;29;20397;-83
2023/09/22 05:57:39;;;;;;;1161.55;937.47;;;13.30;99.90;;;;;;4908713;29;20044;-83
2023/09/22 06:00:17;;;;;;;1098.38;926.47;;;13.30;99.90;;;;;;4902997;29;20472;-83
2023/09/22 06:02:50;;;;;;;1179.95;929.10;;;13.30;99.90;;;;;;4900225;29;20040;-83
2023/09/22 06:05:17;;;;;;;1219.10;951.80;;;13.30;99.90;;;;;;4891325;29;20051;-83
2023/09/22 06:07:43;;;;;;;1165.70;932.03;;;13.30;99.90;;;;;;4910871;29;20107;-83
2023/09/22 06:10:09;;;;;;;1058.85;913.00;;;13.40;99.90;;;;;;4891188;29;20107;-83
2023/09/22 06:12:38;;;;;;;1167.25;941.40;;;13.40;99.90;;;;;;4894575;29;20134;-83
2023/09/22 06:15:08;;;;;;;1057.63;901.67;;;13.40;99.90;;;;;;4897646;29;20170;-83
2023/09/22 06:17:36;;;;;;;1031.60;880.78;;;13.40;99.90;;;;;;4891601;29;20066;-83
2023/09/22 06:20:13;;;;;;;1146.78;927.50;;;13.40;99.90;;;;;;4901585;29;20568;-84
2023/09/22 06:22:41;;;;;;;1035.57;893.63;;;13.40;99.90;;;;;;4907025;29;20052;-83
2023/09/22 06:25:08;;;;;;;1127.90;915.67;;;13.50;99.90;;;;;;4890376;29;20489;-83
2023/09/22 06:27:33;;;;;;;1026.85;885.08;;;13.40;99.90;;;;;;4889369;29;20437;-83
2023/09/22 06:30:00;;;;;;;1088.68;897.35;;;13.50;99.90;;;;;;4890219;29;20532;-84
2023/09/22 06:32:26;;;;;;;1018.25;892.55;;;13.40;99.90;;;;;;4894484;29;20075;-83
2023/09/22 06:34:53;;;;;;;1106.28;913.35;;;13.50;99.90;;;;;;4890385;29;20083;-83
2023/09/22 06:37:19;;;;;;;1085.45;904.38;;;13.50;99.90;;;;;;4888258;29;20051;-83
2023/09/22 06:39:46;;;;;;;1019.00;881.80;;;13.50;99.90;;;;;;4890466;29;20048;-83
2023/09/22 06:42:12;;;;;;;964.58;852.67;;;13.50;99.90;;;;;;4903030;29;20076;-83
2023/09/22 06:44:38;;;;;;;1023.83;880.50;;;13.50;99.90;;;;;;4905588;29;20060;-83
2023/09/22 06:47:05;;;;;;;1082.10;892.20;;;13.60;99.90;;;;;;4886471;29;20652;-83
2023/09/22 06:49:33;;;;;;;1001.45;877.65;;;13.60;99.90;;;;;;4909421;29;20055;-83
2023/09/22 06:52:00;;;;;;;1086.80;897.85;;;13.60;99.90;;;;;;4910412;29;20062;-83
2023/09/22 06:54:26;;;;;;;1052.63;899.20;;;13.60;99.90;;;;;;4900478;29;20404;-84
2023/09/22 06:56:52;;;;;;;1027.82;888.70;;;13.70;99.90;;;;;;4894396;29;20044;-83
2023/09/22 06:59:22;;;;;;;1147.07;921.40;;;13.70;99.90;;;;;;4891816;29;20099;-82
2023/09/22 07:01:48;;;;;;;953.10;850.30;;;13.70;99.90;;;;;;4900254;29;20127;-83
2023/09/22 07:04:14;;;;;;;1070.78;894.75;;;13.80;99.90;;;;;;4907549;29;20460;-83
2023/09/22 07:06:40;;;;;;;1024.47;877.97;;;13.90;99.90;;;;;;4903332;29;20053;-79
2023/09/22 07:09:09;;;;;;;983.38;870.97;;;13.90;99.90;;;;;;4907897;29;20052;-80
2023/09/22 07:11:40;;;;;;;940.78;838.00;;;13.80;99.90;;;;;;4888961;29;20131;-80
2023/09/22 07:14:07;;;;;;;935.08;834.88;;;13.90;99.90;;;;;;4901209;29;20143;-80
2023/09/22 07:16:33;;;;;;;980.88;862.58;;;13.90;99.90;;;;;;4907752;29;20087;-80
2023/09/22 07:19:00;;;;;;;1011.97;872.80;;;13.90;99.90;;;;;;4892208;29;20079;-80
2023/09/22 07:21:26;;;;;;;1006.85;859.20;;;13.90;99.90;;;;;;4888305;29;20040;-80
2023/09/22 07:23:54;;;;;;;985.58;857.67;;;14.00;99.90;;;;;;4899565;29;20092;-80
2023/09/22 07:26:20;;;;;;;976.35;861.80;;;14.00;99.90;;;;;;4907543;29;20055;-80
2023/09/22 07:28:46;;;;;;;1020.00;871.60;;;14.00;99.90;;;;;;4887059;29;20108;-80
2023/09/22 07:31:28;;;;;;;962.53;856.75;;;14.00;99.90;;;;;;4902592;29;20103;-80
2023/09/22 07:33:54;;;;;;;1000.25;858.85;;;14.00;99.90;;;;;;4886479;29;20110;-80
2023/09/22 07:36:19;;;;;;;937.13;836.42;;;14.00;99.90;;;;;;4901981;29;20044;-80
2023/09/22 07:38:45;;;;;;;951.83;847.20;;;14.00;99.90;;;;;;4904159;29;20060;-80
2023/09/22 07:41:11;;;;;;;964.20;849.05;;;13.90;99.90;;;;;;4906782;29;20044;-79
2023/09/22 07:43:36;;;;;;;1036.70;869.75;;;13.90;99.90;;;;;;4907397;29;20056;-80
2023/09/22 07:46:04;;;;;;;998.53;871.40;;;13.80;99.90;;;;;;4907596;29;20083;-80
2023/09/22 07:48:30;;;;;;;945.45;841.95;;;13.80;99.90;;;;;;4907598;29;20119;-79
2023/09/22 07:50:58;;;;;;;948.45;844.88;;;13.80;99.90;;;;;;4908401;29;20433;-80
2023/09/22 07:53:25;;;;;;;1024.45;863.38;;;13.80;99.90;;;;;;4909163;29;20048;-79
2023/09/22 07:55:55;;;;;;;959.03;850.15;;;13.80;99.90;;;;;;4909290;29;20344;-80
2023/09/22 07:58:22;;;;;;;1047.50;878.25;;;13.80;99.90;;;;;;4885677;29;20063;-81
2023/09/22 08:00:48;;;;;;;957.20;854.92;;;13.80;99.90;;;;;;4888298;29;20044;-82
2023/09/22 08:03:14;;;;;;;956.45;850.75;;;13.80;99.90;;;;;;4902034;29;20052;-83
2023/09/22 08:05:40;;;;;;;942.67;841.00;;;13.90;99.90;;;;;;4891399;29;20465;-83
2023/09/22 08:08:07;;;;;;;962.70;852.97;;;13.90;99.90;;;;;;4909875;29;20059;-83
2023/09/22 08:10:33;;;;;;;964.45;855.83;;;13.90;99.90;;;;;;4908067;29;20056;-83
2023/09/22 08:12:59;;;;;;;962.60;853.40;;;13.90;99.90;;;;;;4888046;29;20062;-83
2023/09/22 08:15:26;;;;;;;1019.58;868.85;;;13.90;99.90;;;;;;4890089;29;20058;-83
2023/09/22 08:17:52;;;;;;;964.75;853.75;;;13.90;99.90;;;;;;4888276;29;20072;-82
2023/09/22 08:20:19;;;;;;;963.15;855.67;;;13.90;99.90;;;;;;4906339;29;20108;-83
2023/09/22 08:22:47;;;;;;;980.13;860.13;;;13.90;99.90;;;;;;4906965;29;20056;-83
2023/09/22 08:25:13;;;;;;;1001.20;862.10;;;13.90;99.90;;;;;;4907688;29;20058;-82
2023/09/22 08:27:40;;;;;;;1016.47;866.97;;;13.90;99.90;;;;;;4888647;29;20049;-82
2023/09/22 08:30:11;;;;;;;959.22;853.88;;;13.90;99.90;;;;;;4892803;29;20048;-82
2023/09/22 08:32:43;;;;;;;970.47;850.42;;;14.00;99.90;;;;;;4908683;29;20094;-83
2023/09/22 08:35:10;;;;;;;989.65;867.08;;;14.00;99.90;;;;;;4894137;29;20049;-82
2023/09/22 08:37:42;;;;;;;955.17;849.92;;;14.20;99.90;;;;;;4909210;29;20107;-82
2023/09/22 08:40:09;;;;;;;990.25;862.42;;;14.30;99.90;;;;;;4913700;29;20056;-82
2023/09/22 08:42:38;;;;;;;961.45;855.53;;;14.30;99.90;;;;;;4896586;29;20052;-82
2023/09/22 08:45:08;;;;;;;1056.80;872.20;;;14.40;99.90;;;;;;4912108;29;20040;-82
2023/09/22 08:47:39;;;;;;;1070.88;880.40;;;14.50;99.90;;;;;;4899019;29;20044;-82
2023/09/22 08:50:18;;;;;;;1028.70;863.97;;;14.50;99.90;;;;;;4904574;29;20091;-82
2023/09/22 08:52:46;;;;;;;1051.03;879.45;;;14.50;99.90;;;;;;4928063;29;20070;-83
2023/09/22 08:55:13;;;;;;;1175.93;917.97;;;14.50;99.90;;;;;;4911718;29;20058;-82
2023/09/22 08:57:44;;;;;;;994.97;864.28;;;14.50;99.90;;;;;;4895927;29;20131;-82
2023/09/22 09:00:21;;;;;;;1126.80;913.88;;;14.60;99.90;;;;;;4895767;29;20138;-83
2023/09/22 09:02:49;;;;;;;1092.32;914.72;;;14.50;99.90;;;;;;4910820;29;20036;-83
2023/09/22 09:05:41;;;;;;;985.38;877.35;;;14.50;99.90;;;;;;4911567;29;20079;-82
2023/09/22 09:08:24;;;;;;;1079.28;905.42;;;14.60;99.90;;;;;;4912850;29;20056;-82
2023/09/22 09:10:50;;;;;;;1053.72;894.65;;;14.60;99.90;;;;;;4912128;29;20063;-82
2023/09/22 09:13:19;;;;;;;1130.15;916.03;;;14.60;99.90;;;;;;4896200;29;20488;-82
2023/09/22 09:15:47;;;;;;;1004.90;875.83;;;14.70;99.90;;;;;;4910103;29;20147;-82
2023/09/22 09:18:18;;;;;;;1012.70;876.58;;;14.80;99.90;;;;;;4892903;29;20125;-82
2023/09/22 09:20:46;;;;;;;951.80;838.15;;;15.00;99.90;;;;;;4911184;29;20044;-82
2023/09/22 09:23:19;;;;;;;927.58;833.20;;;15.10;99.90;;;;;;4889045;29;20099;-82
2023/09/22 09:25:56;;;;;;;911.33;818.83;;;15.40;99.90;;;;;;4910908;29;20056;-82
2023/09/22 09:28:23;;;;;;;921.38;826.00;;;15.60;99.90;;;;;;4910456;29;20492;-82
2023/09/22 09:30:56;;;;;;;798.67;718.15;;;15.70;99.90;;;;;;4909987;29;20052;-82
2023/09/22 09:33:23;;;;;;;831.65;745.67;;;15.70;99.90;;;;;;4910812;29;20087;-82
2023/09/22 09:35:50;;;;;;;818.28;733.50;;;15.60;99.90;;;;;;4911557;29;20556;-82
2023/09/22 09:38:17;;;;;;;893.97;797.58;;;15.60;99.90;;;;;;4895731;29;20074;-83
2023/09/22 09:40:43;;;;;;;886.85;793.05;;;15.70;99.90;;;;;;4888513;29;20096;-82
2023/09/22 09:43:15;;;;;;;854.47;765.13;;;15.80;99.90;;;;;;4886120;29;20239;-83
2023/09/22 09:45:56;;;;;;;893.10;797.60;;;15.90;99.90;;;;;;4910323;29;20051;-82
2023/09/22 09:48:24;;;;;;;892.25;795.67;;;15.90;99.90;;;;;;4893201;29;20063;-82
2023/09/22 09:51:00;;;;;;;897.15;799.65;;;16.00;99.90;;;;;;4907787;29;20063;-82
2023/09/22 09:53:46;;;;;;;899.92;804.33;;;16.10;99.90;;;;;;4904549;29;20102;-83
2023/09/22 09:56:17;;;;;;;848.47;757.92;;;16.20;99.90;;;;;;4908435;29;20108;-83
2023/09/22 09:58:45;;;;;;;874.72;784.90;;;16.20;99.90;;;;;;4886631;29;20044;-83
2023/09/22 10:01:12;;;;;;;848.00;760.20;;;16.20;99.90;;;;;;4907773;29;20053;-83
2023/09/22 10:03:42;;;;;;;862.40;771.38;;;16.10;99.90;;;;;;4892704;29;20371;-83
2023/09/22 10:06:13;;;;;;;845.75;759.10;;;15.90;99.90;;;;;;4892347;29;20071;-83
2023/09/22 10:08:39;;;;;;;856.97;763.83;;;15.80;99.90;;;;;;4892781;29;20155;-83
2023/09/22 10:11:12;;;;;;;843.92;754.25;;;15.80;99.90;;;;;;4907394;29;20036;-83
2023/09/22 10:13:38;;;;;;;856.03;769.05;;;15.70;99.90;;;;;;4907838;29;20155;-83
2023/09/22 10:16:05;;;;;;;818.03;735.83;;;15.80;99.90;;;;;;4891984;29;20553;-83
2023/09/22 10:18:49;;;;;;;792.50;715.67;;;15.80;99.90;;;;;;4906821;29;20071;-83
2023/09/22 10:21:38;;;;;;;858.50;767.92;;;15.90;99.90;;;;;;4907520;29;20464;-83
2023/09/22 10:24:25;;;;;;;778.58;703.03;;;16.10;99.90;;;;;;4880476;29;20493;-82
2023/09/22 10:26:53;;;;;;;779.03;701.25;;;16.30;99.90;;;;;;4906546;29;20571;-83
2023/09/22 10:29:34;;;;;;;834.55;746.17;;;16.40;99.90;;;;;;4888283;29;20052;-83
2023/09/22 10:32:18;;;;;;;824.75;737.72;;;16.50;99.90;;;;;;4878923;29;20481;-82
2023/09/22 10:35:10;;;;;;;850.58;758.75;;;16.60;99.90;;;;;;4890619;29;20178;-83
2023/09/22 10:37:37;;;;;;;897.28;794.10;;;16.60;99.90;;;;;;4895122;29;20071;-83
2023/09/22 10:40:15;;;;;;;932.72;816.22;;;16.50;99.90;;;;;;4892049;29;20053;-83
2023/09/22 10:42:42;;;;;;;929.50;797.85;;;16.40;99.90;;;;;;4894026;29;20531;-83
2023/09/22 10:45:09;;;;;;;969.10;823.42;;;16.40;99.90;;;;;;4909991;29;20040;-82
2023/09/22 10:47:45;;;;;;;855.33;764.55;;;16.50;99.90;;;;;;4893372;29;20048;-83
2023/09/22 10:50:17;;;;;;;779.65;699.40;;;16.50;99.90;;;;;;4887946;29;20048;-83
2023/09/22 10:52:53;;;;;;;848.60;756.40;;;16.70;99.90;;;;;;4890068;29;20508;-83
2023/09/22 10:55:24;;;;;;;805.70;717.85;;;16.90;99.90;;;;;;4890540;29;20060;-83
2023/09/22 10:57:50;;;;;;;852.38;758.03;;;16.90;99.90;;;;;;4888378;29;20476;-83
2023/09/22 11:00:18;;;;;;;880.15;783.88;;;17.10;99.90;;;;;;4896989;29;20239;-82
2023/09/22 11:02:44;;;;;;;873.42;779.13;;;17.20;99.90;;;;;;4905799;29;20056;-83
2023/09/22 11:05:15;;;;;;;859.55;764.40;;;17.40;99.90;;;;;;4889646;29;20044;-82
2023/09/22 11:07:44;;;;;;;949.90;825.25;;;17.60;99.90;;;;;;4902111;29;20052;-83
2023/09/22 11:10:19;;;;;;;797.05;713.42;;;17.60;99.90;;;;;;4881179;29;20087;-82
2023/09/22 11:12:51;;;;;;;932.30;831.30;;;17.40;99.90;;;;;;4889611;29;20080;-83
2023/09/22 11:15:18;;;;;;;796.70;716.30;;;17.30;99.90;;;;;;4907030;29;20052;-82
2023/09/22 11:17:48;;;;;;;744.53;672.25;;;17.20;99.90;;;;;;4888542;29;20125;-82
2023/09/22 11:20:18;;;;;;;933.30;833.70;;;17.10;99.90;;;;;;4906315;29;20083;-83
2023/09/22 11:22:45;;;;;;;965.67;855.13;;;17.10;99.90;;;;;;4887737;29;20055;-82
2023/09/22 11:25:11;;;;;;;905.70;809.28;;;17.10;99.90;;;;;;4904067;29;20505;-83
2023/09/22 11:27:42;;;;;;;880.28;783.45;;;17.10;99.90;;;;;;4891877;29;20492;-82
2023/09/22 11:30:14;;;;;;;986.20;854.88;;;17.20;99.90;;;;;;4895559;29;20044;-82
2023/09/22 11:32:41;;;;;;;978.40;834.42;;;17.10;99.90;;;;;;4906797;29;20096;-83
2023/09/22 11:35:07;;;;;;;951.45;822.08;;;17.10;99.90;;;;;;4898394;29;20040;-83
2023/09/22 11:37:33;;;;;;;948.67;832.28;;;17.10;99.90;;;;;;4904449;29;20051;-83
2023/09/22 11:39:58;;;;;;;913.28;809.42;;;17.10;99.90;;;;;;4907020;29;20051;-83
2023/09/22 11:42:24;;;;;;;956.28;834.42;;;17.00;99.90;;;;;;4892053;29;20134;-82
2023/09/22 11:44:59;;;;;;;890.47;784.67;;;16.90;99.90;;;;;;4905373;29;20726;-83
2023/09/22 11:47:25;;;;;;;1021.17;830.38;;;17.00;99.90;;;;;;4902711;29;20409;-83
2023/09/22 11:49:50;;;;;;;1004.90;837.35;;;17.00;99.90;;;;;;4886123;29;20580;-83
2023/09/22 11:52:30;;;;;;;901.55;800.65;;;17.10;99.90;;;;;;4902876;29;20056;-81
2023/09/22 11:54:57;;;;;;;812.45;725.53;;;17.30;99.90;;;;;;4906544;29;20051;-80
2023/09/22 11:57:22;;;;;;;928.35;781.10;;;17.50;99.90;;;;;;4906238;29;20048;-81
2023/09/22 11:59:57;;;;;;;785.90;701.38;;;17.70;99.90;;;;;;4900282;29;20123;-81
2023/09/22 12:02:23;;;;;;;725.20;649.03;;;17.80;99.90;;;;;;4893371;29;20052;-81
2023/09/22 12:04:48;;;;;;;688.50;621.80;;;17.90;99.90;;;;;;4887761;29;20067;-81
2023/09/22 12:07:14;;;;;;;777.65;700.88;;;17.90;99.90;;;;;;4882679;29;20041;-84